Time;durP1;ratioP1;P1;durP2;ratioP2;P2;SDS_P1;SDS_P2;PMS_P1;PMS_P2;Temp;Humidity;BMP_temperature;BMP_pressure;BME280_temperature;BME280_humidity;BME280_pressure;Samples;Min_cycle;Max_cycle;Signal;HPM_P1;HPM_P2
2021/12/04 00:00:44;;;;;;;5.15;2.00;;;;;;;2.32;100.00;98563.50;5036506;28;20391;-79
2021/12/04 00:03:10;;;;;;;5.18;2.15;;;;;;;2.24;100.00;98563.69;5037350;28;20068;-78
2021/12/04 00:05:35;;;;;;;3.65;1.75;;;;;;;2.23;100.00;98561.97;5036090;28;20029;-78
2021/12/04 00:08:00;;;;;;;8.20;2.78;;;;;;;2.27;100.00;98558.44;5036010;28;20030;-79
2021/12/04 00:10:28;;;;;;;6.32;2.35;;;;;;;2.25;100.00;98561.94;5035309;28;20029;-76
2021/12/04 00:12:54;;;;;;;4.60;2.00;;;;;;;2.18;100.00;98555.25;5035142;28;20426;-79
2021/12/04 00:15:20;;;;;;;5.72;2.10;;;;;;;2.26;100.00;98546.44;5023801;28;20037;-78
2021/12/04 00:17:45;;;;;;;5.30;2.25;;;;;;;2.34;100.00;98546.25;5038469;28;20490;-79
2021/12/04 00:20:11;;;;;;;5.05;2.20;;;;;;;2.28;100.00;98541.22;5036566;28;20141;-77
2021/12/04 00:22:37;;;;;;;5.28;2.03;;;;;;;2.35;100.00;98537.63;5035500;28;20037;-78
2021/12/04 00:25:04;;;;;;;;;;;;;;;2.34;100.00;98530.75;5018798;28;20123;-77
2021/12/04 00:27:29;;;;;;;6.43;1.83;;;;;;;2.27;100.00;98532.63;5035041;28;19916;-78
2021/12/04 00:29:56;;;;;;;5.95;2.63;;;;;;;2.32;100.00;98522.19;5035964;28;20037;-78
2021/12/04 00:32:36;;;;;;;3.70;1.65;;;;;;;2.29;100.00;98519.69;5035460;28;20038;-77
2021/12/04 00:35:19;;;;;;;5.93;2.35;;;;;;;2.28;100.00;98518.84;5035416;28;20041;-77
2021/12/04 00:51:14;;;;;;;2.78;1.38;;;;;;;2.28;100.00;98507.66;5034006;28;20056;-77
2021/12/04 00:57:01;;;;;;;3.92;1.70;;;;;;;2.23;100.00;98501.75;5034599;28;20399;-78
2021/12/04 00:59:26;;;;;;;4.13;2.03;;;;;;;2.23;100.00;98509.50;5034561;28;20029;-78
2021/12/04 01:01:52;;;;;;;4.95;1.98;;;;;;;2.27;100.00;98503.38;5034680;28;20040;-77
2021/12/04 01:04:19;;;;;;;4.63;1.65;;;;;;;2.27;100.00;98498.22;5034273;28;20179;-77
2021/12/04 01:06:45;;;;;;;4.32;1.75;;;;;;;2.23;100.00;98496.59;5033929;28;20029;-78
2021/12/04 01:09:12;;;;;;;3.90;1.83;;;;;;;2.26;100.00;98486.22;5034318;28;20037;-77
2021/12/04 01:11:39;;;;;;;4.32;1.63;;;;;;;2.26;100.00;98487.06;5033659;28;20116;-79
2021/12/04 01:14:06;;;;;;;5.22;1.95;;;;;;;2.38;100.00;98474.75;5033829;28;20051;-80
2021/12/04 01:16:31;;;;;;;5.40;1.67;;;;;;;2.32;100.00;98473.16;5015870;28;20032;-77
2021/12/04 01:18:58;;;;;;;4.15;1.67;;;;;;;2.33;100.00;98480.00;5033438;28;20029;-78
2021/12/04 01:21:23;;;;;;;4.30;1.90;;;;;;;2.36;100.00;98477.34;5033642;28;20033;-77
2021/12/04 01:23:49;;;;;;;4.65;2.25;;;;;;;2.39;100.00;98473.84;5016241;28;20037;-77
2021/12/04 01:26:14;;;;;;;4.22;1.77;;;;;;;2.45;100.00;98465.97;5033267;28;20037;-77
2021/12/04 01:28:39;;;;;;;5.80;2.33;;;;;;;2.40;100.00;98455.75;5015632;28;20491;-77
2021/12/04 01:31:05;;;;;;;4.38;2.22;;;;;;;2.41;100.00;98459.16;4986414;28;20099;-78
2021/12/04 01:33:30;;;;;;;6.72;2.35;;;;;;;2.35;100.00;98455.84;5033832;28;20044;-77
2021/12/04 01:35:56;;;;;;;6.57;2.80;;;;;;;2.40;100.00;98458.31;5033472;28;20060;-79
2021/12/04 01:38:21;;;;;;;5.35;2.50;;;;;;;2.40;100.00;98466.06;5033961;28;20090;-77
2021/12/04 01:40:47;;;;;;;7.43;3.08;;;;;;;2.43;100.00;98465.16;5034005;28;20439;-78
2021/12/04 01:43:12;;;;;;;6.88;3.17;;;;;;;2.45;100.00;98465.97;5034440;28;20037;-78
2021/12/04 01:45:38;;;;;;;6.10;2.65;;;;;;;2.48;100.00;98465.88;5034167;28;20033;-78
2021/12/04 01:48:04;;;;;;;6.05;2.13;;;;;;;2.48;100.00;98463.31;5033136;28;20051;-79
2021/12/04 01:50:31;;;;;;;6.53;2.63;;;;;;;2.50;100.00;98461.53;5032912;28;20042;-78
2021/12/04 01:52:57;;;;;;;6.03;2.08;;;;;;;2.48;100.00;98465.88;5037033;28;20510;-77
2021/12/04 01:55:30;;;;;;;;;;;;;;;2.60;100.00;98461.22;5037364;28;20036;-77
2021/12/04 01:57:56;;;;;;;5.45;1.90;;;;;;;2.68;100.00;98448.13;5037205;28;19913;-78
2021/12/04 02:00:22;;;;;;;5.05;1.98;;;;;;;2.60;100.00;98460.41;5036714;28;20037;-77
2021/12/04 02:02:47;;;;;;;;;;;;;;;2.60;100.00;98461.22;5038057;28;20057;-78
2021/12/04 02:05:13;;;;;;;3.60;1.45;;;;;;;2.65;100.00;98454.22;5037181;28;20347;-77
2021/12/04 02:07:38;;;;;;;7.55;2.55;;;;;;;2.73;100.00;98451.44;5037732;28;20022;-78
2021/12/04 02:10:05;;;;;;;4.85;1.92;;;;;;;2.69;100.00;98449.81;5037532;28;20061;-78
2021/12/04 02:12:31;;;;;;;5.47;2.33;;;;;;;2.71;100.00;98450.63;5019286;28;20029;-77
2021/12/04 02:14:56;;;;;;;4.97;2.53;;;;;;;2.74;100.00;98441.94;5036420;28;20396;-77
2021/12/04 02:17:22;;;;;;;6.20;2.53;;;;;;;2.78;100.00;98446.13;5037605;28;20041;-77
2021/12/04 02:19:48;;;;;;;5.40;1.73;;;;;;;2.75;100.00;98439.31;5036603;28;20112;-77
2021/12/04 02:22:13;;;;;;;5.25;2.40;;;;;;;2.71;100.00;98439.44;5036747;28;20268;-77
2021/12/04 02:24:39;;;;;;;5.38;2.00;;;;;;;2.80;100.00;98434.88;5037319;28;20038;-78
2021/12/04 02:27:05;;;;;;;4.20;2.03;;;;;;;2.71;100.00;98437.69;5019405;28;20120;-77
2021/12/04 02:29:31;;;;;;;7.50;2.17;;;;;;;2.73;100.00;98432.50;5036346;28;20468;-77
2021/12/04 02:31:58;;;;;;;4.93;2.15;;;;;;;2.83;100.00;98431.38;5037179;28;20033;-78
2021/12/04 02:34:27;;;;;;;5.53;2.00;;;;;;;2.87;100.00;98420.06;5019016;28;20040;-77
2021/12/04 02:36:53;;;;;;;5.80;2.65;;;;;;;2.82;100.00;98427.09;5036077;28;20033;-77
2021/12/04 02:39:24;;;;;;;;;;;;;;;2.80;100.00;98426.28;5018206;28;20136;-78
2021/12/04 02:41:50;;;;;;;3.35;1.60;;;;;;;2.89;100.00;98419.13;5036282;28;19917;-77
2021/12/04 02:44:16;;;;;;;4.18;2.00;;;;;;;2.81;100.00;98418.50;5018710;28;20037;-77
2021/12/04 02:50:07;;;;;;;5.20;1.80;;;;;;;2.81;100.00;98415.91;5035838;28;20064;-75
2021/12/04 02:52:33;;;;;;;5.60;2.33;;;;;;;2.86;100.00;98408.03;5035386;28;20492;-75
2021/12/04 02:54:58;;;;;;;;;;;;;;;2.84;100.00;98395.16;5035879;28;20021;-75
2021/12/04 02:57:24;;;;;;;4.05;1.83;;;;;;;3.06;100.00;98385.03;5035758;28;19977;-76
2021/12/04 02:59:50;;;;;;;4.93;2.47;;;;;;;3.02;100.00;98378.25;5017718;28;20123;-76
2021/12/04 03:02:21;;;;;;;;;;;;;;;2.89;100.00;98379.53;5017916;28;20048;-76
2021/12/04 03:04:53;;;;;;;4.05;1.60;;;;;;;2.93;100.00;98378.56;5034806;28;19909;-76
2021/12/04 03:07:19;;;;;;;4.70;2.05;;;;;;;2.89;100.00;98374.34;5034982;28;20031;-76
2021/12/04 03:09:45;;;;;;;4.57;2.15;;;;;;;2.91;100.00;98376.00;5017577;28;20057;-76
2021/12/04 03:12:11;;;;;;;4.85;1.73;;;;;;;3.01;100.00;98367.06;5035258;28;20183;-76
2021/12/04 03:14:37;;;;;;;4.82;1.95;;;;;;;3.04;100.00;98355.81;5035293;28;20037;-76
2021/12/04 03:17:03;;;;;;;4.65;1.75;;;;;;;3.00;100.00;98347.28;5035363;28;20044;-76
2021/12/04 03:19:29;;;;;;;5.35;1.77;;;;;;;3.03;100.00;98338.59;5017353;28;20041;-77
2021/12/04 03:21:55;;;;;;;5.03;2.05;;;;;;;2.89;100.00;98328.69;5035425;28;20404;-76
2021/12/04 03:24:22;;;;;;;5.65;2.05;;;;;;;2.97;100.00;98323.31;5017721;28;20083;-76
2021/12/04 03:26:49;;;;;;;3.78;1.63;;;;;;;2.97;100.00;98324.13;5034958;28;20427;-77
2021/12/04 03:29:18;;;;;;;4.88;1.58;;;;;;;2.93;100.00;98312.22;5035340;28;20037;-76
2021/12/04 03:42:40;;;;;;;4.20;1.77;;;;;;;2.89;100.00;98310.59;5035001;28;20100;-76
2021/12/04 03:45:08;;;;;;;4.57;2.30;;;;;;;2.97;100.00;98313.78;5034773;28;20052;-77
2021/12/04 03:47:37;;;;;;;3.85;1.52;;;;;;;2.99;100.00;98313.75;5034739;28;20536;-77
2021/12/04 03:50:03;;;;;;;3.90;1.70;;;;;;;2.98;100.00;98306.88;5016833;28;20029;-76
2021/12/04 03:52:29;;;;;;;5.55;2.42;;;;;;;2.97;100.00;98315.56;5034423;28;20369;-77
2021/12/04 03:54:54;;;;;;;6.32;1.70;;;;;;;2.99;100.00;98309.41;5016721;28;20037;-76
2021/12/04 03:57:19;;;;;;;4.90;1.93;;;;;;;3.02;100.00;98306.75;5034907;28;20029;-76
2021/12/04 03:59:47;;;;;;;3.72;1.98;;;;;;;3.01;100.00;98305.06;5034936;28;20032;-77
2021/12/04 04:02:15;;;;;;;4.43;1.83;;;;;;;3.24;100.00;98304.38;5034404;28;20065;-76
2021/12/04 04:04:41;;;;;;;5.45;1.63;;;;;;;3.15;100.00;98307.22;5034097;28;20628;-76
2021/12/04 04:07:07;;;;;;;4.22;1.80;;;;;;;3.15;100.00;98311.56;5034235;28;20036;-76
2021/12/04 04:09:33;;;;;;;4.40;1.52;;;;;;;3.03;100.00;98303.28;5033960;28;20033;-77
2021/12/04 04:11:59;;;;;;;5.32;1.70;;;;;;;3.05;100.00;98305.81;5033853;28;20057;-76
2021/12/04 04:14:25;;;;;;;3.50;1.40;;;;;;;3.10;100.00;98308.25;5034330;28;20131;-76
2021/12/04 04:16:53;;;;;;;5.10;1.67;;;;;;;3.07;100.00;98298.00;5034327;28;20040;-77
2021/12/04 04:19:19;;;;;;;4.97;1.90;;;;;;;3.12;100.00;98301.31;5034134;28;20029;-76
2021/12/04 04:21:45;;;;;;;;;;;;;;;3.08;100.00;98290.22;5034319;28;20034;-76
2021/12/04 04:24:14;;;;;;;4.60;1.75;;;;;;;3.07;100.00;98288.50;5033549;28;19916;-76
2021/12/04 04:26:41;;;;;;;3.33;1.50;;;;;;;3.06;100.00;98289.41;4979641;28;20054;-76
2021/12/04 04:29:07;;;;;;;4.47;2.08;;;;;;;3.16;100.00;98288.25;5033561;28;20025;-76
2021/12/04 04:31:34;;;;;;;4.50;1.77;;;;;;;3.02;100.00;98293.81;5033737;28;20037;-75
2021/12/04 04:34:03;;;;;;;3.28;1.40;;;;;;;3.08;100.00;98295.38;5033504;28;20491;-75
2021/12/04 04:58:10;;;;;;;3.80;1.60;;;;;;;3.40;100.00;98272.84;5033663;28;20036;-76
2021/12/04 05:11:46;;;;;;;3.08;1.15;;;;;;;3.28;100.00;98259.44;5032997;28;20082;-75
2021/12/04 05:14:18;;;;;;;4.05;1.48;;;;;;;3.26;100.00;98260.38;5033100;28;20033;-76
2021/12/04 05:17:05;;;;;;;4.57;1.90;;;;;;;3.24;100.00;98260.41;5015354;28;20491;-76
2021/12/04 05:22:09;;;;;;;4.10;1.50;;;;;;;3.34;100.00;98263.56;5033242;28;20033;-77
2021/12/04 05:24:34;;;;;;;4.35;1.50;;;;;;;3.28;100.00;98254.25;5033025;28;20061;-75
2021/12/04 05:27:00;;;;;;;3.23;1.30;;;;;;;3.35;100.00;98263.47;5032185;28;20064;-75
2021/12/04 05:29:25;;;;;;;2.80;1.10;;;;;;;3.39;100.00;98255.63;5032758;28;20298;-75
2021/12/04 05:31:51;;;;;;;3.78;1.63;;;;;;;3.33;100.00;98261.88;4986647;28;20063;-76
2021/12/04 05:34:17;;;;;;;4.13;1.70;;;;;;;3.26;100.00;98257.78;5015388;28;20022;-75
2021/12/04 05:36:42;;;;;;;4.25;1.75;;;;;;;3.32;100.00;98261.03;5032668;28;20041;-75
2021/12/04 05:39:08;;;;;;;4.30;1.52;;;;;;;3.24;100.00;98262.16;5032999;28;20481;-75
2021/12/04 05:41:34;;;;;;;4.47;1.63;;;;;;;3.22;100.00;98251.00;5015299;28;20476;-75
2021/12/04 05:44:05;;;;;;;4.70;1.92;;;;;;;3.47;100.00;98251.06;5032903;28;20104;-76
2021/12/04 05:46:36;;;;;;;3.85;1.50;;;;;;;3.46;100.00;98249.38;5032681;28;20468;-75
2021/12/04 05:49:12;;;;;;;4.18;1.38;;;;;;;3.32;100.00;98248.09;5032925;28;20029;-75
2021/12/04 05:54:31;;;;;;;3.47;1.27;;;;;;;3.22;100.00;98256.19;5032838;28;20391;-75
2021/12/04 05:56:57;;;;;;;3.22;1.20;;;;;;;3.16;100.00;98241.72;5033010;28;20157;-75
2021/12/04 05:59:22;;;;;;;5.25;1.85;;;;;;;3.26;100.00;98242.28;5032808;28;20030;-75
2021/12/04 06:01:47;;;;;;;4.88;1.42;;;;;;;3.37;100.00;98237.56;5032567;28;20030;-75
2021/12/04 06:04:13;;;;;;;3.85;1.63;;;;;;;3.32;100.00;98240.34;5032790;28;20069;-76
2021/12/04 06:06:38;;;;;;;5.20;1.60;;;;;;;3.28;100.00;98232.72;5032670;28;20082;-76
2021/12/04 06:09:05;;;;;;;3.50;1.50;;;;;;;3.23;100.00;98240.63;5014930;28;20268;-76
2021/12/04 06:11:31;;;;;;;3.90;1.50;;;;;;;3.23;100.00;98248.38;5032334;28;20650;-76
2021/12/04 06:13:56;;;;;;;4.32;1.90;;;;;;;3.22;100.00;98258.78;5032704;28;20160;-76
2021/12/04 06:16:24;;;;;;;4.68;1.45;;;;;;;3.25;100.00;98249.19;5032650;28;20061;-76
2021/12/04 06:18:52;;;;;;;3.88;1.50;;;;;;;3.33;100.00;98247.19;5032282;28;20033;-76
2021/12/04 06:24:04;;;;;;;3.13;1.27;;;;;;;3.19;100.00;98238.19;5032484;28;20070;-76
2021/12/04 06:26:31;;;;;;;;;;;;;;;3.25;100.00;98233.66;5015175;28;20469;-76
2021/12/04 06:28:56;;;;;;;3.33;1.48;;;;;;;3.30;100.00;98236.09;5033070;28;19909;-76
2021/12/04 06:31:22;;;;;;;3.10;1.20;;;;;;;3.20;100.00;98242.47;5032592;28;20036;-76
2021/12/04 06:33:47;;;;;;;4.60;1.60;;;;;;;3.26;100.00;98235.34;5014455;28;20037;-76
2021/12/04 06:36:13;;;;;;;4.63;1.52;;;;;;;3.27;100.00;98226.72;5032109;28;20084;-76
2021/12/04 06:38:38;;;;;;;3.83;1.33;;;;;;;3.22;100.00;98238.94;5033251;28;20037;-77
2021/12/04 06:41:04;;;;;;;3.58;1.45;;;;;;;3.22;100.00;98228.59;5035900;28;20030;-76
2021/12/04 06:43:30;;;;;;;6.05;1.92;;;;;;;3.27;100.00;98231.88;5035921;28;20373;-76
2021/12/04 06:46:03;;;;;;;3.03;1.20;;;;;;;3.30;100.00;98225.75;5035969;28;20087;-76
2021/12/04 06:51:35;;;;;;;4.03;1.55;;;;;;;3.35;100.00;98224.69;5012411;28;20038;-76
2021/12/04 06:54:12;;;;;;;3.65;1.27;;;;;;;3.46;100.00;98221.75;5035277;28;20091;-76
2021/12/04 06:56:39;;;;;;;4.13;1.63;;;;;;;3.46;100.00;98220.91;5035180;28;20095;-76
2021/12/04 06:59:12;;;;;;;3.65;1.40;;;;;;;3.46;100.00;98231.25;5035477;28;20033;-76
2021/12/04 07:01:39;;;;;;;3.90;1.50;;;;;;;3.45;100.00;98226.97;5035513;28;20100;-76
2021/12/04 07:04:05;;;;;;;3.53;1.50;;;;;;;3.36;100.00;98215.19;5035701;28;20033;-77
2021/12/04 07:06:31;;;;;;;;;;;;;;;3.38;100.00;98228.06;5017796;28;20026;-76
2021/12/04 07:08:57;;;;;;;4.40;1.42;;;;;;;3.56;100.00;98217.13;5035038;28;19909;-76
2021/12/04 07:11:23;;;;;;;5.47;1.63;;;;;;;3.46;100.00;98226.09;5034851;28;20408;-77
2021/12/04 07:13:49;;;;;;;4.03;1.48;;;;;;;3.48;100.00;98222.56;5035389;28;20029;-76
2021/12/04 07:16:17;;;;;;;4.10;1.58;;;;;;;3.45;100.00;98227.81;5035339;28;20121;-77
2021/12/04 07:18:43;;;;;;;4.03;1.55;;;;;;;3.45;100.00;98224.41;5035449;28;20030;-76
2021/12/04 07:21:09;;;;;;;4.18;1.75;;;;;;;3.43;100.00;98224.44;5035557;28;20041;-77
2021/12/04 07:23:35;;;;;;;3.97;1.65;;;;;;;3.35;100.00;98216.09;5035143;28;20503;-76
2021/12/04 07:26:01;;;;;;;4.65;1.80;;;;;;;3.46;100.00;98213.16;5034803;28;20414;-76
2021/12/04 07:28:26;;;;;;;3.53;1.42;;;;;;;3.43;100.00;98218.44;5034729;28;20112;-76
2021/12/04 07:30:52;;;;;;;4.18;1.30;;;;;;;3.40;100.00;98223.69;5035123;28;20041;-74
2021/12/04 07:33:17;;;;;;;4.57;1.60;;;;;;;3.48;100.00;98225.16;4983320;28;20038;-74
2021/12/04 07:35:43;;;;;;;4.20;2.30;;;;;;;3.50;100.00;98220.75;5016965;28;20490;-76
2021/12/04 07:38:11;;;;;;;3.17;1.38;;;;;;;3.53;100.00;98219.81;5034225;28;20049;-75
2021/12/04 07:40:38;;;;;;;4.20;1.40;;;;;;;3.55;100.00;98220.63;5034416;28;20041;-75
2021/12/04 07:43:04;;;;;;;3.65;1.25;;;;;;;3.57;100.00;98230.00;5016827;28;20172;-75
2021/12/04 07:45:29;;;;;;;4.80;1.80;;;;;;;3.48;100.00;98221.72;5035740;28;20037;-75
2021/12/04 07:47:55;;;;;;;4.20;1.98;;;;;;;3.46;100.00;98218.34;5034496;28;20034;-76
2021/12/04 07:50:21;;;;;;;4.72;1.40;;;;;;;3.51;100.00;98219.03;5016751;28;20033;-75
2021/12/04 07:52:47;;;;;;;6.07;2.40;;;;;;;3.47;100.00;98220.88;5034240;28;20419;-77
2021/12/04 07:55:15;;;;;;;4.13;1.45;;;;;;;3.61;100.00;98218.66;5034405;28;20025;-75
2021/12/04 07:57:41;;;;;;;3.83;1.45;;;;;;;3.60;100.00;98216.13;5034802;28;20041;-76
2021/12/04 08:00:10;;;;;;;3.47;1.27;;;;;;;3.59;100.00;98217.03;5034403;28;20044;-76
2021/12/04 08:02:36;;;;;;;2.83;1.08;;;;;;;3.63;100.00;98223.78;5034494;28;20037;-76
2021/12/04 08:05:04;;;;;;;2.92;1.00;;;;;;;3.57;100.00;98226.59;5034475;28;20032;-76
2021/12/04 08:07:30;;;;;;;4.28;1.80;;;;;;;3.66;100.00;98229.72;5034021;28;20100;-77
2021/12/04 08:09:55;;;;;;;3.03;1.40;;;;;;;3.56;100.00;98225.75;5016627;28;20065;-77
2021/12/04 08:12:20;;;;;;;3.63;1.52;;;;;;;3.59;100.00;98233.41;5034140;28;20083;-77
2021/12/04 08:14:46;;;;;;;4.35;1.75;;;;;;;3.47;100.00;98231.22;5016954;28;20037;-77
2021/12/04 08:17:11;;;;;;;3.90;1.23;;;;;;;3.42;100.00;98220.16;5034172;28;20029;-77
2021/12/04 08:19:37;;;;;;;3.17;1.17;;;;;;;3.43;100.00;98226.19;5034449;28;20737;-77
2021/12/04 08:22:02;;;;;;;3.92;1.75;;;;;;;3.46;100.00;98223.50;5034371;28;20076;-77
2021/12/04 08:24:28;;;;;;;3.78;1.40;;;;;;;3.32;100.00;98227.41;5033680;28;20030;-77
2021/12/04 08:26:54;;;;;;;6.40;1.17;;;;;;;3.28;100.00;98219.78;5033996;28;20112;-77
2021/12/04 08:29:19;;;;;;;3.60;1.50;;;;;;;3.36;100.00;98217.78;5033702;28;20034;-77
2021/12/04 08:31:46;;;;;;;3.17;1.30;;;;;;;3.31;100.00;98217.13;5032563;28;20490;-77
2021/12/04 08:34:12;;;;;;;3.50;1.45;;;;;;;3.30;100.00;98218.00;5033619;28;20673;-77
2021/12/04 08:36:37;;;;;;;5.13;1.48;;;;;;;3.29;100.00;98218.91;5033542;28;20484;-77
2021/12/04 08:39:05;;;;;;;4.45;1.83;;;;;;;3.39;100.00;98216.84;5033986;28;20531;-78
2021/12/04 08:41:30;;;;;;;4.05;1.40;;;;;;;3.35;100.00;98206.59;5033336;28;20120;-77
2021/12/04 08:43:56;;;;;;;4.13;1.70;;;;;;;3.45;100.00;98208.88;5033337;28;20587;-78
2021/12/04 08:46:23;;;;;;;3.70;1.30;;;;;;;3.41;100.00;98199.53;5033860;28;20472;-77
2021/12/04 08:48:51;;;;;;;4.35;1.63;;;;;;;3.46;100.00;98192.47;5033665;28;20264;-75
2021/12/04 08:51:18;;;;;;;4.18;1.85;;;;;;;3.58;100.00;98195.50;5016656;28;20107;-76
2021/12/04 08:53:44;;;;;;;5.63;1.88;;;;;;;3.51;100.00;98204.34;5033386;28;20029;-76
2021/12/04 08:56:09;;;;;;;;;;;;;;;3.51;100.00;98201.75;5033709;28;20171;-76
2021/12/04 08:58:36;;;;;;;4.80;1.73;;;;;;;3.49;100.00;98210.47;5032707;28;20379;-75
2021/12/04 09:01:07;;;;;;;4.38;1.65;;;;;;;3.42;100.00;98204.66;5032439;28;20038;-74
2021/12/04 09:03:35;;;;;;;5.32;1.67;;;;;;;3.40;100.00;98203.00;5033189;28;20444;-76
2021/12/04 09:06:03;;;;;;;4.70;1.90;;;;;;;3.46;100.00;98195.91;5032962;28;20076;-74
2021/12/04 09:08:29;;;;;;;5.20;1.98;;;;;;;3.50;100.00;98199.22;5033201;28;20025;-75
2021/12/04 09:10:57;;;;;;;4.07;1.60;;;;;;;3.38;100.00;98204.81;5033051;28;20030;-74
2021/12/04 09:13:24;;;;;;;5.03;2.00;;;;;;;3.42;100.00;98199.47;5033629;28;20354;-75
2021/12/04 09:15:50;;;;;;;4.72;1.70;;;;;;;3.54;100.00;98204.25;5032822;28;20029;-74
2021/12/04 09:18:16;;;;;;;5.10;2.17;;;;;;;3.50;100.00;98201.81;5032856;28;20495;-75
2021/12/04 09:20:41;;;;;;;5.68;2.25;;;;;;;3.52;100.00;98197.44;5032917;28;20037;-75
2021/12/04 09:23:14;;;;;;;7.75;2.95;;;;;;;3.59;100.00;98197.19;5032739;28;20533;-74
2021/12/04 09:25:43;;;;;;;5.53;2.20;;;;;;;3.53;100.00;98212.91;5033202;28;20042;-74
2021/12/04 10:24:39;;;;;;;4.88;2.40;;;;;;;4.07;100.00;98094.56;4982128;28;20145;-75
2021/12/04 10:35:07;;;;;;;5.47;1.83;;;;;;;4.11;100.00;98084.00;5036166;28;20522;-77
2021/12/04 10:37:37;;;;;;;6.32;2.63;;;;;;;4.21;100.00;98077.56;5035726;28;20069;-75
2021/12/04 10:40:08;;;;;;;5.22;2.60;;;;;;;4.25;100.00;98075.72;5018256;28;20464;-74
2021/12/04 10:42:52;;;;;;;5.40;2.33;;;;;;;4.18;100.00;98076.84;5036049;28;20375;-76
2021/12/04 10:45:19;;;;;;;5.07;2.70;;;;;;;4.19;100.00;98069.03;5035496;28;20452;-76
2021/12/04 10:47:57;;;;;;;4.07;1.65;;;;;;;4.12;100.00;98067.56;5035350;28;20037;-75
2021/12/04 10:52:57;;;;;;;5.13;2.65;;;;;;;4.11;100.00;98054.69;5035513;28;20460;-75
2021/12/04 11:03:27;;;;;;;6.40;2.33;;;;;;;4.24;100.00;98024.84;5036229;28;20372;-75
2021/12/04 11:37:10;;;;;;;4.65;2.13;;;;;;;4.33;100.00;97958.00;5034461;28;20486;-76
2021/12/04 11:39:59;;;;;;;5.50;2.00;;;;;;;4.52;100.00;97954.63;5016981;28;20084;-76
2021/12/04 11:47:50;;;;;;;3.97;1.80;;;;;;;4.56;100.00;97954.44;5034784;28;20164;-76
2021/12/04 11:50:18;;;;;;;7.55;2.00;;;;;;;4.46;100.00;97953.13;5034388;28;20384;-77
2021/12/04 11:52:49;;;;;;;4.13;1.88;;;;;;;4.40;100.00;97956.00;5034271;28;20053;-76
2021/12/04 11:55:19;;;;;;;5.80;2.65;;;;;;;4.35;100.00;97953.59;5034833;28;20033;-74
2021/12/04 11:57:45;;;;;;;4.50;1.70;;;;;;;4.39;100.00;97948.28;5034577;28;20029;-74
2021/12/04 12:00:28;;;;;;;4.28;2.05;;;;;;;4.32;100.00;97947.69;5016652;28;20037;-74
2021/12/04 12:03:14;;;;;;;6.63;2.58;;;;;;;4.36;100.00;97937.16;5033990;28;20021;-75
2021/12/04 12:05:45;;;;;;;5.15;2.25;;;;;;;4.35;100.00;97929.44;5034590;28;20029;-74
2021/12/04 12:08:27;;;;;;;5.05;1.92;;;;;;;4.31;100.00;97915.78;5033921;28;20128;-74
2021/12/04 12:10:58;;;;;;;6.22;2.00;;;;;;;4.40;100.00;97922.31;5033847;28;20116;-75
2021/12/04 12:13:27;;;;;;;4.85;1.80;;;;;;;4.32;100.00;97917.47;5034539;28;20026;-74
2021/12/04 12:15:58;;;;;;;4.70;2.05;;;;;;;4.38;100.00;97931.91;5034057;28;20037;-74
2021/12/04 12:18:24;;;;;;;4.57;1.80;;;;;;;4.47;100.00;97922.88;5015978;28;20057;-73
2021/12/04 12:20:56;;;;;;;5.00;1.95;;;;;;;4.51;100.00;97919.25;5016288;28;20041;-75
2021/12/04 12:23:29;;;;;;;4.05;1.67;;;;;;;4.52;100.00;97914.00;5034634;28;20035;-74
2021/12/04 12:26:18;;;;;;;3.85;1.67;;;;;;;4.42;100.00;97902.38;5033992;28;20029;-74
2021/12/04 12:37:23;;;;;;;5.13;1.92;;;;;;;4.17;100.00;97868.88;5017177;28;20049;-76
2021/12/04 12:39:58;;;;;;;6.47;2.60;;;;;;;4.27;100.00;97871.94;5033948;28;20033;-76
2021/12/04 12:42:31;;;;;;;5.43;1.92;;;;;;;4.23;100.00;97855.69;5015837;28;20400;-76
2021/12/04 12:45:16;;;;;;;4.57;1.90;;;;;;;4.41;100.00;97861.00;5033734;28;20029;-76
2021/12/04 12:48:00;;;;;;;4.40;1.95;;;;;;;4.55;100.00;97858.66;5033579;28;20072;-73
2021/12/04 12:50:34;;;;;;;3.70;1.55;;;;;;;4.47;100.00;97858.97;5033587;28;20044;-77
2021/12/04 12:53:03;;;;;;;5.40;2.05;;;;;;;4.42;100.00;97849.75;5015738;28;20598;-76
2021/12/04 12:55:32;;;;;;;5.30;2.03;;;;;;;4.59;100.00;97847.25;5033134;28;20496;-76
2021/12/04 12:58:10;;;;;;;4.28;1.90;;;;;;;4.55;100.00;97841.34;5033253;28;20118;-76
2021/12/04 13:12:08;;;;;;;4.10;1.50;;;;;;;4.62;100.00;97837.59;5033155;28;20387;-74
2021/12/04 13:14:45;;;;;;;4.45;1.83;;;;;;;4.50;100.00;97843.31;5033193;28;20456;-75
2021/12/04 13:17:29;;;;;;;;;;;;;;;4.67;100.00;97837.41;5033984;28;20063;-75
2021/12/04 13:19:57;;;;;;;4.05;1.70;;;;;;;4.45;100.00;97839.25;5033224;28;20270;-74
2021/12/04 13:22:25;;;;;;;3.75;1.50;;;;;;;4.38;100.00;97843.84;5033100;28;20063;-75
2021/12/04 13:24:54;;;;;;;3.50;1.63;;;;;;;4.67;100.00;97833.06;5033526;28;20061;-74
2021/12/04 13:30:02;;;;;;;3.70;1.73;;;;;;;4.51;100.00;97850.16;5033022;28;20490;-75
2021/12/04 13:32:38;;;;;;;4.35;1.95;;;;;;;4.49;100.00;97851.13;4984695;28;20029;-75
2021/12/04 13:35:15;;;;;;;3.78;1.58;;;;;;;4.57;100.00;97855.09;5033088;28;20506;-74
2021/12/04 13:37:41;;;;;;;;;;;;;;;4.54;100.00;97857.81;5033422;28;20084;-74
2021/12/04 13:40:12;;;;;;;5.25;2.20;;;;;;;4.51;100.00;97859.69;5033193;28;19913;-74
2021/12/04 13:42:39;;;;;;;4.68;1.73;;;;;;;4.49;100.00;97864.09;5033818;28;20112;-74
2021/12/04 13:45:08;;;;;;;6.45;2.28;;;;;;;4.43;100.00;97859.19;5033602;28;20037;-73
2021/12/04 13:47:34;;;;;;;3.47;1.77;;;;;;;4.39;100.00;97860.22;5034861;28;20117;-74
2021/12/04 13:50:00;;;;;;;4.75;1.80;;;;;;;4.31;100.00;97857.97;5019699;28;20472;-75
2021/12/04 13:52:32;;;;;;;4.38;1.58;;;;;;;4.26;100.00;97863.34;5020562;28;20033;-76
2021/12/04 13:55:08;;;;;;;4.38;1.80;;;;;;;4.08;100.00;97873.63;5046460;28;20044;-76
2021/12/04 13:57:38;;;;;;;4.22;1.92;;;;;;;4.02;100.00;97857.44;5045910;28;20033;-76
2021/12/04 14:00:05;;;;;;;4.00;1.73;;;;;;;3.98;100.00;97857.63;5039357;28;20079;-76
2021/12/04 14:02:32;;;;;;;4.80;1.90;;;;;;;3.89;100.00;97861.44;5020359;28;20036;-77
2021/12/04 14:05:12;;;;;;;6.18;2.53;;;;;;;3.83;100.00;97860.84;5037985;28;20033;-77
2021/12/04 14:07:49;;;;;;;4.72;2.03;;;;;;;3.78;100.00;97861.00;5037898;28;20025;-77
2021/12/04 14:10:27;;;;;;;6.65;3.10;;;;;;;3.84;100.00;97853.00;5037647;28;20041;-77
2021/12/04 14:12:54;;;;;;;5.53;2.38;;;;;;;3.86;100.00;97856.38;5042291;28;20056;-77
2021/12/04 14:15:22;;;;;;;6.75;2.40;;;;;;;3.82;100.00;97847.06;5038501;28;20060;-77
2021/12/04 14:17:58;;;;;;;5.82;2.15;;;;;;;3.82;100.00;97841.03;5037703;28;20057;-77
2021/12/04 14:20:24;;;;;;;;;;;;;;;3.79;100.00;97839.41;5039030;28;20459;-77
2021/12/04 14:22:52;;;;;;;5.40;2.00;;;;;;;3.72;100.00;97847.47;5019364;28;19909;-76
2021/12/04 14:25:18;;;;;;;5.43;2.08;;;;;;;3.73;100.00;97850.00;5037511;28;20080;-77
2021/12/04 14:27:44;;;;;;;6.28;2.13;;;;;;;3.67;100.00;97848.53;5036680;28;20376;-77
2021/12/04 14:30:20;;;;;;;4.63;1.90;;;;;;;3.63;100.00;97857.31;5037365;28;20479;-77
2021/12/04 14:32:52;;;;;;;6.40;2.23;;;;;;;3.60;100.00;97854.00;5036674;28;20063;-77
2021/12/04 14:35:19;;;;;;;4.95;1.88;;;;;;;3.63;100.00;97856.47;5036950;28;20252;-77
2021/12/04 14:37:52;;;;;;;5.68;2.47;;;;;;;3.63;100.00;97856.47;5018355;28;20049;-77
2021/12/04 14:40:22;;;;;;;4.90;2.00;;;;;;;3.61;100.00;97866.88;5036792;28;20025;-77
2021/12/04 14:42:50;;;;;;;39.75;8.00;;;;;;;3.66;100.00;97871.88;5037289;28;20037;-77
2021/12/04 14:45:26;;;;;;;14.40;3.50;;;;;;;3.68;100.00;97877.84;5036687;28;20120;-77
2021/12/04 14:48:08;;;;;;;9.35;2.78;;;;;;;3.65;100.00;97883.13;5037012;28;20492;-76
2021/12/04 14:50:38;;;;;;;5.20;2.38;;;;;;;3.68;100.00;97889.03;5037811;28;20040;-77
2021/12/04 14:53:08;;;;;;;5.57;2.17;;;;;;;3.72;100.00;97894.88;5035702;28;20079;-76
2021/12/04 14:55:35;;;;;;;5.95;2.25;;;;;;;3.78;100.00;97898.97;5036620;28;20029;-77
2021/12/04 14:58:06;;;;;;;5.70;2.50;;;;;;;3.75;100.00;97901.69;5036394;28;20076;-76
2021/12/04 15:00:36;;;;;;;4.70;2.08;;;;;;;3.67;100.00;97900.28;5017001;28;20033;-78
2021/12/04 15:03:09;;;;;;;6.38;2.85;;;;;;;3.65;100.00;97898.66;5018204;28;20060;-77
2021/12/04 15:05:41;;;;;;;5.65;2.63;;;;;;;3.60;100.00;97901.41;5018062;28;20120;-76
2021/12/04 15:08:09;;;;;;;6.72;2.40;;;;;;;3.57;100.00;97900.69;5035379;28;20031;-76
2021/12/04 15:10:36;;;;;;;4.95;2.13;;;;;;;3.60;100.00;97904.00;5035151;28;20064;-76